Time;durP1;ratioP1;P1;durP2;ratioP2;P2;SDS_P1;SDS_P2;PMS_P1;PMS_P2;Temp;Humidity;BMP_temperature;BMP_pressure;BME280_temperature;BME280_humidity;BME280_pressure;Samples;Min_cycle;Max_cycle;Signal;HPM_P1;HPM_P2
2023/04/19 00:02:28;;;;;;;0.20;0.20;;;;;;;10.81;100.00;102790.19;10355883;28;20048;-79
2023/04/19 00:07:30;;;;;;;0.70;0.65;;;;;;;10.90;100.00;102789.81;10367531;28;20037;-78
2023/04/19 00:12:32;;;;;;;0.47;0.45;;;;;;;10.79;100.00;102792.69;10385975;28;20063;-79
2023/04/19 00:17:33;;;;;;;1.10;0.68;;;;;;;10.72;100.00;102788.00;10383304;28;20537;-78
2023/04/19 00:22:35;;;;;;;0.40;0.35;;;;;;;10.79;100.00;102778.91;10362771;28;20048;-78
2023/04/19 00:27:37;;;;;;;0.88;0.47;;;;;;;10.88;100.00;102774.25;10385838;28;20122;-79
2023/04/19 00:32:38;;;;;;;0.70;0.70;;;;;;;10.81;100.00;102771.25;10364346;28;20512;-78
2023/04/19 00:37:40;;;;;;;0.82;0.82;;;;;;;10.87;100.00;102777.63;10375903;28;20467;-79
2023/04/19 00:42:41;;;;;;;0.50;0.40;;;;;;;10.95;100.00;102775.47;10385192;28;20054;-78
2023/04/19 00:47:45;;;;;;;0.85;0.65;;;;;;;10.89;100.00;102775.16;10373608;28;20046;-78
2023/04/19 00:52:47;;;;;;;0.20;0.20;;;;;;;10.82;100.00;102767.88;10387912;28;20496;-77
2023/04/19 00:57:50;;;;;;;1.10;0.73;;;;;;;10.61;100.00;102768.47;10372854;28;20041;-78
2023/04/19 01:02:54;;;;;;;0.65;0.40;;;;;;;10.60;100.00;102764.13;10391344;28;20038;-78
2023/04/19 01:07:55;;;;;;;0.40;0.35;;;;;;;10.61;100.00;102763.31;10383680;28;20116;-78
2023/04/19 01:12:57;;;;;;;0.55;0.43;;;;;;;10.38;100.00;102762.94;10375171;28;20041;-77
2023/04/19 01:18:00;;;;;;;0.38;0.38;;;;;;;10.57;100.00;102763.94;10378514;28;20052;-78
2023/04/19 01:23:02;;;;;;;2.55;0.90;;;;;;;10.47;100.00;102763.41;10368388;28;20048;-77
2023/04/19 01:28:04;;;;;;;1.00;0.57;;;;;;;10.44;100.00;102755.53;10386184;28;20061;-77
2023/04/19 01:33:06;;;;;;;0.25;0.25;;;;;;;10.35;100.00;102762.69;10362822;28;20050;-78
2023/04/19 01:38:07;;;;;;;2.67;0.40;;;;;;;10.44;100.00;102754.63;10366627;28;20052;-78
2023/04/19 01:43:13;;;;;;;1.65;0.88;;;;;;;10.34;100.00;102753.19;10393107;28;20505;-79
2023/04/19 01:48:15;;;;;;;0.68;0.40;;;;;;;10.24;100.00;102758.66;10368375;28;20042;-77
2023/04/19 01:53:17;;;;;;;0.70;0.70;;;;;;;10.43;100.00;102756.34;10370493;28;20046;-77
2023/04/19 01:58:18;;;;;;;1.58;0.95;;;;;;;10.36;100.00;102766.16;10382058;28;20050;-79
2023/04/19 02:03:20;;;;;;;0.30;0.10;;;;;;;10.39;100.00;102762.09;10367141;28;20070;-78
2023/04/19 02:08:23;;;;;;;3.83;1.02;;;;;;;10.34;100.00;102765.19;10377512;28;20052;-79
2023/04/19 02:13:24;;;;;;;1.60;0.90;;;;;;;10.40;100.00;102763.88;10376851;28;20111;-77
2023/04/19 02:18:28;;;;;;;0.52;0.40;;;;;;;10.43;100.00;102748.59;10359086;28;20542;-78
2023/04/19 02:23:30;;;;;;;0.50;0.47;;;;;;;10.67;100.00;102761.09;10375250;28;20045;-78
2023/04/19 02:28:33;;;;;;;0.52;0.22;;;;;;;10.82;100.00;102757.56;10371958;28;20045;-78
2023/04/19 02:33:35;;;;;;;0.63;0.60;;;;;;;10.74;100.00;102765.78;10349355;28;20042;-78
2023/04/19 02:38:36;;;;;;;1.48;0.20;;;;;;;10.75;100.00;102757.25;10369812;28;20046;-78
2023/04/19 02:43:38;;;;;;;0.50;0.50;;;;;;;10.67;100.00;102758.50;10366220;28;20579;-78
2023/04/19 02:48:39;;;;;;;0.35;0.30;;;;;;;10.63;100.00;102759.13;10369166;28;20069;-77
2023/04/19 02:53:41;;;;;;;0.40;0.30;;;;;;;10.71;100.00;102765.59;10388501;28;20431;-79
2023/04/19 02:58:43;;;;;;;0.20;0.20;;;;;;;10.54;100.00;102768.91;10373737;28;20060;-78
2023/04/19 03:03:45;;;;;;;0.00;0.00;;;;;;;10.52;100.00;102763.69;10357180;28;20133;-79
2023/04/19 03:08:47;;;;;;;1.10;0.65;;;;;;;10.31;100.00;102768.50;10365660;28;20072;-78
2023/04/19 03:13:50;;;;;;;0.95;0.40;;;;;;;10.24;100.00;102766.38;10356194;28;20045;-78
2023/04/19 03:18:52;;;;;;;1.20;0.82;;;;;;;10.00;100.00;102761.56;10378190;28;20036;-78
2023/04/19 03:23:58;;;;;;;1.10;0.80;;;;;;;9.61;100.00;102758.41;10363239;28;20412;-78
2023/04/19 03:29:00;;;;;;;0.35;0.22;;;;;;;9.62;100.00;102757.63;10347875;28;20091;-78
2023/04/19 03:34:19;;;;;;;0.90;0.63;;;;;;;9.61;100.00;102761.88;10356665;28;20428;-78
2023/04/19 03:39:22;;;;;;;0.35;0.10;;;;;;;9.42;100.00;102765.03;10362463;28;20038;-78
2023/04/19 03:44:33;;;;;;;1.45;0.85;;;;;;;9.43;100.00;102751.38;10351666;28;20042;-78
2023/04/19 03:49:37;;;;;;;1.70;0.25;;;;;;;9.17;100.00;102758.41;10364335;28;20046;-79
2023/04/19 03:54:40;;;;;;;0.68;0.35;;;;;;;9.12;100.00;102754.63;10356257;28;20050;-78
2023/04/19 03:59:51;;;;;;;0.80;0.50;;;;;;;9.06;100.00;102754.25;10358447;28;20443;-78
2023/04/19 04:04:54;;;;;;;0.57;0.57;;;;;;;8.99;100.00;102754.69;10365205;28;20099;-78
2023/04/19 04:09:57;;;;;;;0.10;0.10;;;;;;;9.07;100.00;102761.19;10371039;28;20046;-78
2023/04/19 04:14:59;;;;;;;0.28;0.25;;;;;;;9.01;100.00;102766.81;10378453;28;20041;-78
2023/04/19 04:20:00;;;;;;;27.73;3.05;;;;;;;9.04;100.00;102771.31;10369629;28;20033;-78
2023/04/19 04:25:05;;;;;;;0.40;0.40;;;;;;;8.99;100.00;102764.97;10365671;28;20137;-79
2023/04/19 04:30:11;;;;;;;1.58;0.70;;;;;;;8.96;100.00;102759.66;10377256;28;20052;-79
2023/04/19 04:35:14;;;;;;;0.15;0.10;;;;;;;9.10;100.00;102763.06;10355861;28;20100;-79
2023/04/19 04:40:22;;;;;;;0.70;0.35;;;;;;;9.24;100.00;102763.91;10396990;28;20049;-77
2023/04/19 04:45:24;;;;;;;0.35;0.35;;;;;;;9.41;100.00;102762.38;10391804;28;20057;-77
2023/04/19 04:50:26;;;;;;;0.57;0.40;;;;;;;9.66;100.00;102764.72;10372238;28;20595;-78
2023/04/19 04:55:28;;;;;;;0.73;0.10;;;;;;;9.48;100.00;102769.66;10373735;28;20042;-78
2023/04/19 05:00:30;;;;;;;0.13;0.13;;;;;;;9.73;100.00;102760.84;10363879;28;20041;-78
2023/04/19 05:05:36;;;;;;;0.03;0.03;;;;;;;9.75;100.00;102760.13;10380429;28;20096;-77
2023/04/19 05:10:38;;;;;;;0.57;0.57;;;;;;;9.93;100.00;102764.59;10376222;28;20121;-78
2023/04/19 05:15:40;;;;;;;0.63;0.57;;;;;;;9.90;100.00;102757.59;10368834;28;20088;-78
2023/04/19 05:20:42;;;;;;;0.17;0.17;;;;;;;9.64;100.00;102756.03;10349913;28;20042;-77
2023/04/19 05:25:51;;;;;;;0.65;0.50;;;;;;;9.90;100.00;102749.84;10366846;28;20037;-77
2023/04/19 05:30:55;;;;;;;0.45;0.40;;;;;;;9.98;100.00;102743.44;10358755;28;20069;-77
2023/04/19 05:35:59;;;;;;;0.57;0.45;;;;;;;10.00;100.00;102759.00;10367942;28;20045;-78
2023/04/19 05:41:02;;;;;;;0.00;0.00;;;;;;;9.97;100.00;102761.38;10392168;28;20395;-78
2023/04/19 05:46:04;;;;;;;0.25;0.22;;;;;;;9.96;100.00;102763.09;10363056;28;20052;-78
2023/04/19 05:51:06;;;;;;;1.38;0.50;;;;;;;9.93;100.00;102767.16;10379105;28;20052;-77
2023/04/19 05:56:46;;;;;;;0.63;0.32;;;;;;;9.78;100.00;102770.63;10368915;28;20053;-78
2023/04/19 06:01:48;;;;;;;0.60;0.43;;;;;;;9.88;100.00;102778.88;10381249;28;20401;-78
2023/04/19 06:06:50;;;;;;;0.73;0.32;;;;;;;10.41;100.00;102777.66;10376992;28;20548;-79
2023/04/19 06:11:53;;;;;;;0.20;0.10;;;;;;;9.97;100.00;102767.44;10385902;28;20614;-78
2023/04/19 06:16:55;;;;;;;0.45;0.40;;;;;;;10.08;100.00;102770.63;10385180;28;20045;-78
2023/04/19 06:21:57;;;;;;;0.00;0.00;;;;;;;10.03;100.00;102781.47;10365926;28;20037;-78
2023/04/19 06:26:58;;;;;;;2.30;0.25;;;;;;;9.72;100.00;102785.66;10365856;28;20046;-78
2023/04/19 06:32:00;;;;;;;0.00;0.00;;;;;;;9.36;99.81;102778.41;10359936;28;20125;-79
2023/04/19 06:37:02;;;;;;;0.68;0.20;;;;;;;9.70;100.00;102792.44;10341047;28;20042;-77
2023/04/19 06:42:04;;;;;;;0.85;0.40;;;;;;;9.69;100.00;102790.66;10338333;28;20045;-77
2023/04/19 06:47:06;;;;;;;0.20;0.10;;;;;;;9.78;100.00;102796.38;10332501;28;20054;-77
2023/04/19 06:52:08;;;;;;;0.17;0.17;;;;;;;9.86;100.00;102795.94;10350640;28;20099;-77
2023/04/19 06:57:09;;;;;;;0.22;0.22;;;;;;;10.29;100.00;102795.84;10351285;28;20161;-77
2023/04/19 07:02:11;;;;;;;0.77;0.32;;;;;;;10.12;100.00;102787.16;10360458;28;20066;-77
2023/04/19 07:07:13;;;;;;;1.98;0.57;;;;;;;9.99;99.38;102788.13;10346436;28;20069;-78
2023/04/19 07:12:14;;;;;;;0.00;0.00;;;;;;;9.75;99.04;102793.59;10366803;28;20092;-77
2023/04/19 07:17:17;;;;;;;0.60;0.40;;;;;;;10.41;100.00;102790.56;10330893;28;20100;-78
2023/04/19 07:22:18;;;;;;;0.73;0.73;;;;;;;10.25;98.42;102788.72;10322626;28;20049;-77
2023/04/19 07:27:20;;;;;;;0.20;0.20;;;;;;;10.78;100.00;102790.91;10352344;28;20129;-77
2023/04/19 07:32:21;;;;;;;0.55;0.10;;;;;;;10.79;98.25;102792.69;10359689;28;20046;-78
2023/04/19 07:37:23;;;;;;;0.17;0.10;;;;;;;10.63;95.41;102797.78;10360387;28;20053;-78
2023/04/19 07:42:24;;;;;;;6.85;0.43;;;;;;;11.38;96.28;102793.25;10357820;28;20050;-77
2023/04/19 07:47:26;;;;;;;0.43;0.38;;;;;;;11.39;93.50;102797.63;10355010;28;20053;-77
2023/04/19 07:52:28;;;;;;;1.20;0.57;;;;;;;11.20;92.44;102792.28;10360617;28;20057;-77
2023/04/19 07:57:30;;;;;;;1.15;0.17;;;;;;;12.33;89.04;102786.00;10355966;28;20049;-79
2023/04/19 08:02:31;;;;;;;0.05;0.05;;;;;;;12.68;86.13;102785.94;10346063;28;20102;-78
2023/04/19 08:07:33;;;;;;;0.22;0.20;;;;;;;13.29;86.06;102789.59;10346230;28;20050;-78
2023/04/19 08:12:35;;;;;;;1.38;1.08;;;;;;;12.03;86.67;102799.19;10344452;28;20433;-78
2023/04/19 08:17:45;;;;;;;0.10;0.10;;;;;;;12.46;87.19;102782.34;10356960;28;20491;-79
2023/04/19 08:22:47;;;;;;;0.00;0.00;;;;;;;13.39;84.75;102785.75;10348632;28;20042;-78
2023/04/19 08:27:48;;;;;;;0.82;0.32;;;;;;;12.56;86.42;102794.00;10349890;28;20135;-78
2023/04/19 08:32:50;;;;;;;0.20;0.20;;;;;;;12.06;85.74;102790.72;10346320;28;20469;-78
2023/04/19 08:37:51;;;;;;;0.00;0.00;;;;;;;12.27;84.43;102790.00;10346662;28;20053;-79
2023/04/19 08:42:55;;;;;;;0.00;0.00;;;;;;;12.89;85.17;102783.47;10345264;28;20042;-79
2023/04/19 08:47:58;;;;;;;0.40;0.20;;;;;;;13.36;87.42;102790.75;10357716;28;20053;-78
2023/04/19 08:53:03;;;;;;;0.05;0.05;;;;;;;13.39;86.25;102786.66;10369123;28;20049;-79
2023/04/19 08:58:25;;;;;;;0.03;0.00;;;;;;;13.44;86.80;102774.78;10369155;28;20052;-78
2023/04/19 09:03:46;;;;;;;0.10;0.10;;;;;;;12.99;85.20;102780.50;10350732;28;20049;-78
2023/04/19 09:09:17;;;;;;;0.15;0.00;;;;;;;12.53;79.88;102773.19;10346589;28;20050;-77
2023/04/19 09:14:22;;;;;;;0.13;0.00;;;;;;;13.86;79.87;102762.72;10345053;28;20407;-77
2023/04/19 09:19:23;;;;;;;0.40;0.17;;;;;;;15.43;84.36;102747.19;10367252;28;20108;-78
2023/04/19 09:24:38;;;;;;;0.43;0.20;;;;;;;14.82;77.70;102751.88;10332162;28;20125;-79
2023/04/19 09:29:51;;;;;;;1.35;0.10;;;;;;;14.60;75.50;102751.03;10360750;28;20037;-79
2023/04/19 09:34:55;;;;;;;0.55;0.10;;;;;;;14.64;79.33;102739.06;10361641;28;20481;-77
2023/04/19 09:39:56;;;;;;;0.00;0.00;;;;;;;13.99;76.53;102748.56;10364664;28;20116;-78
2023/04/19 09:44:58;;;;;;;0.10;0.00;;;;;;;14.42;78.18;102740.84;10342312;28;20464;-78
2023/04/19 09:50:10;;;;;;;0.00;0.00;;;;;;;14.21;77.98;102735.66;10352072;28;20044;-78
2023/04/19 09:55:26;;;;;;;0.08;0.08;;;;;;;14.74;76.40;102728.22;10358242;28;20058;-78
2023/04/19 10:00:32;;;;;;;0.75;0.10;;;;;;;14.31;72.78;102720.50;10338594;28;20491;-77
2023/04/19 10:05:48;;;;;;;0.00;0.00;;;;;;;14.53;71.39;102724.78;10350784;28;20034;-78
2023/04/19 10:10:53;;;;;;;1.45;0.45;;;;;;;14.37;64.95;102721.59;10354575;28;20571;-77
2023/04/19 10:15:55;;;;;;;0.20;0.20;;;;;;;14.36;70.82;102708.56;10360914;28;20153;-78
2023/04/19 10:21:09;;;;;;;1.90;0.30;;;;;;;16.60;68.40;102697.22;10357887;28;20489;-77
2023/04/19 10:26:11;;;;;;;0.80;0.55;;;;;;;15.11;61.85;102694.09;10349448;28;20058;-77
2023/04/19 10:31:13;;;;;;;0.20;0.20;;;;;;;15.96;61.50;102686.63;10353214;28;20124;-79
2023/04/19 10:36:16;;;;;;;0.52;0.20;;;;;;;15.29;57.61;102678.28;10366994;28;20073;-79
2023/04/19 10:41:18;;;;;;;0.20;0.10;;;;;;;16.29;59.57;102675.47;10358638;28;20052;-78
2023/04/19 10:46:19;;;;;;;0.20;0.10;;;;;;;15.20;52.79;102666.75;10386436;28;20128;-80
2023/04/19 10:51:32;;;;;;;0.20;0.10;;;;;;;16.59;55.75;102659.03;10379680;28;20468;-80
2023/04/19 10:56:33;;;;;;;0.03;0.00;;;;;;;16.25;52.62;102663.25;10380107;28;20065;-79
2023/04/19 11:01:59;;;;;;;0.15;0.15;;;;;;;16.52;51.60;102647.56;10356620;28;20527;-79
2023/04/19 11:07:04;;;;;;;0.40;0.32;;;;;;;17.47;55.54;102637.09;10361582;28;20068;-78
2023/04/19 11:12:07;;;;;;;0.13;0.13;;;;;;;15.84;50.85;102641.19;10390974;28;20505;-79
2023/04/19 11:17:26;;;;;;;0.00;0.00;;;;;;;15.60;51.62;102625.66;10349552;28;20092;-79
2023/04/19 11:22:36;;;;;;;0.20;0.20;;;;;;;15.77;48.45;102623.59;10364762;28;20037;-79
2023/04/19 11:27:38;;;;;;;;;;;;;;;15.57;50.01;102611.69;10312667;28;20141;-79
2023/04/19 11:32:47;;;;;;;0.40;0.35;;;;;;;15.55;54.45;102609.91;10352200;28;19932;-79
2023/04/19 11:37:50;;;;;;;0.40;0.40;;;;;;;16.37;50.06;102595.09;10370105;28;20049;-78
2023/04/19 11:42:59;;;;;;;2.17;0.43;;;;;;;15.82;50.32;102597.75;10349849;28;20103;-79
2023/04/19 11:48:01;;;;;;;0.00;0.00;;;;;;;15.63;47.55;102593.69;10352062;28;20878;-78
2023/04/19 11:53:12;;;;;;;0.00;0.00;;;;;;;16.33;54.14;102587.19;10351081;28;20100;-78
2023/04/19 11:58:35;;;;;;;0.20;0.17;;;;;;;16.65;50.85;102570.72;10344124;28;20108;-79
2023/04/19 12:03:45;;;;;;;0.43;0.30;;;;;;;17.45;59.73;102577.13;10365710;28;20054;-79
2023/04/19 12:08:50;;;;;;;0.00;0.00;;;;;;;17.76;54.67;102562.22;10345937;28;20054;-79
2023/04/19 12:14:11;;;;;;;0.40;0.13;;;;;;;16.17;55.96;102567.69;10369531;28;20472;-79
2023/04/19 12:19:18;;;;;;;0.10;0.10;;;;;;;16.46;52.73;102554.63;10348667;28;20079;-80
2023/04/19 12:24:20;;;;;;;0.10;0.10;;;;;;;18.19;52.59;102536.22;10381062;28;20044;-79
2023/04/19 12:29:22;;;;;;;0.20;0.20;;;;;;;17.49;51.50;102536.41;10382893;28;20045;-78
2023/04/19 12:34:23;;;;;;;0.10;0.10;;;;;;;17.19;58.68;102522.69;10386452;28;20053;-78
2023/04/19 12:39:25;;;;;;;0.22;0.17;;;;;;;17.16;56.53;102516.53;10362119;28;20397;-79
2023/04/19 12:44:27;;;;;;;0.47;0.20;;;;;;;16.74;50.47;102512.84;10359404;28;20052;-78
2023/04/19 12:49:28;;;;;;;0.52;0.43;;;;;;;17.72;55.17;102503.06;10354752;28;20034;-79
2023/04/19 12:54:30;;;;;;;0.20;0.15;;;;;;;17.15;47.06;102500.00;10363603;28;20524;-78
2023/04/19 12:59:31;;;;;;;0.30;0.10;;;;;;;16.23;49.29;102488.97;10366248;28;20561;-78
2023/04/19 13:04:32;;;;;;;0.20;0.20;;;;;;;17.11;52.80;102478.22;10343488;28;20053;-78
2023/04/19 13:09:34;;;;;;;0.77;0.45;;;;;;;16.90;49.80;102472.47;10356791;28;20043;-78
2023/04/19 13:14:36;;;;;;;0.20;0.20;;;;;;;16.52;49.69;102472.38;10369483;28;20045;-78
2023/04/19 13:19:37;;;;;;;0.98;0.65;;;;;;;16.65;51.05;102462.34;10378701;28;20045;-79
2023/04/19 13:24:39;;;;;;;0.35;0.10;;;;;;;16.77;47.79;102461.75;10344267;28;20153;-78
2023/04/19 13:29:40;;;;;;;0.40;0.40;;;;;;;16.90;55.80;102456.84;10360655;28;20062;-78
2023/04/19 13:34:41;;;;;;;0.10;0.10;;;;;;;16.16;48.79;102456.69;10357169;28;20057;-78
2023/04/19 13:39:43;;;;;;;0.93;0.85;;;;;;;15.97;50.02;102450.09;10362116;28;20041;-79
2023/04/19 13:44:44;;;;;;;0.43;0.38;;;;;;;16.47;52.70;102451.44;10375414;28;20423;-77
2023/04/19 13:49:50;;;;;;;0.52;0.40;;;;;;;16.20;55.38;102447.25;10387376;28;20041;-78
2023/04/19 13:54:52;;;;;;;0.32;0.32;;;;;;;16.70;55.77;102433.81;10380273;28;20077;-78
2023/04/19 13:59:53;;;;;;;0.13;0.13;;;;;;;16.67;55.55;102428.53;10377285;28;20037;-78
2023/04/19 14:04:57;;;;;;;1.75;0.40;;;;;;;16.74;55.57;102425.25;10361461;28;20508;-78
2023/04/19 14:09:59;;;;;;;1.27;0.25;;;;;;;16.56;56.25;102412.66;10361116;28;20558;-79
2023/04/19 14:15:00;;;;;;;0.20;0.20;;;;;;;16.79;57.30;102401.94;10351185;28;20041;-78
2023/04/19 14:20:02;;;;;;;0.45;0.20;;;;;;;16.26;51.56;102398.00;10358597;28;20043;-79
2023/04/19 14:25:07;;;;;;;1.35;0.35;;;;;;;16.77;55.82;102388.88;10346070;28;20046;-79
2023/04/19 14:30:09;;;;;;;0.15;0.13;;;;;;;16.18;50.82;102387.44;10346700;28;20584;-79
2023/04/19 14:35:11;;;;;;;0.13;0.10;;;;;;;16.41;52.22;102374.13;10359015;28;20145;-81
2023/04/19 14:40:12;;;;;;;0.57;0.08;;;;;;;15.70;51.46;102374.81;10359247;28;20050;-79
2023/04/19 14:45:14;;;;;;;0.45;0.25;;;;;;;15.94;52.49;102382.44;10357907;28;20046;-79
2023/04/19 14:50:15;;;;;;;0.35;0.20;;;;;;;15.90;52.13;102377.13;10352323;28;20088;-79
2023/04/19 14:55:17;;;;;;;0.10;0.10;;;;;;;16.30;55.11;102366.06;10365489;28;20080;-80
2023/04/19 15:00:18;;;;;;;0.00;0.00;;;;;;;16.02;55.08;102354.94;10348229;28;20038;-79
2023/04/19 15:05:26;;;;;;;0.50;0.20;;;;;;;16.64;55.76;102358.22;10339130;28;20054;-79
2023/04/19 15:10:28;;;;;;;0.00;0.00;;;;;;;16.44;56.92;102348.19;10363732;28;20117;-78
2023/04/19 15:15:29;;;;;;;1.58;0.65;;;;;;;16.63;59.46;102344.31;10344840;28;20484;-79
2023/04/19 15:20:30;;;;;;;0.52;0.52;;;;;;;15.63;55.33;102341.69;10346079;28;20658;-80
2023/04/19 15:25:33;;;;;;;0.08;0.03;;;;;;;15.51;56.14;102334.44;10361877;28;20077;-79
2023/04/19 15:30:35;;;;;;;1.52;0.20;;;;;;;15.78;55.27;102329.13;10366227;28;20423;-79
2023/04/19 15:35:36;;;;;;;1.95;0.25;;;;;;;15.91;57.92;102334.69;10358455;28;20142;-79
2023/04/19 15:40:39;;;;;;;0.40;0.40;;;;;;;15.63;57.99;102334.81;10370386;28;20042;-80
2023/04/19 15:45:40;;;;;;;0.30;0.20;;;;;;;15.62;57.38;102330.44;10351514;28;20052;-80
2023/04/19 15:50:41;;;;;;;0.43;0.43;;;;;;;15.46;55.86;102323.03;10369478;28;20048;-79
2023/04/19 15:55:46;;;;;;;0.70;0.25;;;;;;;16.04;52.38;102321.19;10345427;28;20045;-80
2023/04/19 16:00:48;;;;;;;1.20;0.47;;;;;;;15.88;55.32;102314.69;10374768;28;20474;-78
2023/04/19 16:05:50;;;;;;;0.40;0.40;;;;;;;15.79;55.26;102310.09;10373083;28;20435;-81
2023/04/19 16:10:52;;;;;;;0.43;0.38;;;;;;;15.66;51.39;102313.22;10359843;28;20037;-81
2023/04/19 16:15:53;;;;;;;0.17;0.10;;;;;;;15.53;49.32;102315.44;10390487;28;20520;-80
2023/04/19 16:20:55;;;;;;;0.70;0.32;;;;;;;15.46;52.47;102304.88;10375766;28;20041;-79
2023/04/19 16:25:56;;;;;;;0.10;0.10;;;;;;;15.62;54.00;102300.97;10364832;28;20037;-79
2023/04/19 16:30:58;;;;;;;0.88;0.10;;;;;;;15.45;52.93;102303.97;10380193;28;20645;-79
2023/04/19 16:35:59;;;;;;;1.80;0.77;;;;;;;15.60;52.39;102300.06;10369826;28;20052;-79
2023/04/19 16:41:04;;;;;;;0.80;0.70;;;;;;;15.64;53.19;102307.09;10372475;28;20034;-79
2023/04/19 16:46:06;;;;;;;0.10;0.10;;;;;;;15.63;54.02;102298.44;10398273;28;20037;-79
2023/04/19 16:51:07;;;;;;;0.75;0.52;;;;;;;15.57;54.42;102307.75;10380948;28;20555;-79
2023/04/19 16:56:09;;;;;;;0.00;0.00;;;;;;;14.66;50.57;102303.38;10394451;28;20137;-79
2023/04/19 17:01:11;;;;;;;0.32;0.30;;;;;;;14.66;53.08;102298.19;10377911;28;20039;-79
2023/04/19 17:06:13;;;;;;;0.15;0.10;;;;;;;14.68;54.68;102305.16;10378220;28;20052;-79
2023/04/19 17:11:14;;;;;;;0.13;0.13;;;;;;;15.11;58.13;102302.13;10369818;28;20048;-80
2023/04/19 17:16:16;;;;;;;0.28;0.25;;;;;;;14.70;57.03;102310.44;10380222;28;20100;-79
2023/04/19 17:21:17;;;;;;;0.52;0.52;;;;;;;13.84;52.18;102314.47;10372248;28;20041;-78
2023/04/19 17:26:19;;;;;;;0.10;0.10;;;;;;;13.84;51.45;102308.44;10378702;28;20463;-80
2023/04/19 17:31:21;;;;;;;0.10;0.10;;;;;;;13.69;47.76;102311.34;10384395;28;20149;-79
2023/04/19 17:36:22;;;;;;;1.40;0.32;;;;;;;13.61;48.56;102322.31;10382473;28;20049;-79
2023/04/19 17:41:24;;;;;;;0.40;0.40;;;;;;;13.50;49.15;102308.09;10359423;28;20058;-78
2023/04/19 17:46:25;;;;;;;0.00;0.00;;;;;;;13.17;47.63;102324.09;10377971;28;20113;-79
2023/04/19 17:51:27;;;;;;;0.82;0.45;;;;;;;13.25;46.54;102317.50;10353107;28;20049;-78
2023/04/19 17:56:30;;;;;;;0.57;0.50;;;;;;;13.02;46.95;102325.28;10361728;28;20065;-78
2023/04/19 18:01:33;;;;;;;0.15;0.10;;;;;;;12.91;47.82;102326.59;10346885;28;20577;-78
2023/04/19 18:06:35;;;;;;;0.90;0.38;;;;;;;12.44;48.28;102333.31;10366581;28;20056;-77
2023/04/19 18:11:36;;;;;;;0.57;0.10;;;;;;;12.57;48.18;102325.22;10359088;28;20049;-79
2023/04/19 18:16:38;;;;;;;0.47;0.32;;;;;;;12.20;51.26;102331.47;10353640;28;20187;-80
2023/04/19 18:21:40;;;;;;;0.22;0.15;;;;;;;12.09;50.81;102319.81;10369194;28;20058;-78
2023/04/19 18:26:42;;;;;;;0.30;0.30;;;;;;;11.94;50.55;102332.91;10368980;28;20057;-79
2023/04/19 18:31:43;;;;;;;0.65;0.63;;;;;;;11.85;52.16;102334.25;10353305;28;20038;-78
2023/04/19 18:36:45;;;;;;;0.35;0.35;;;;;;;11.59;54.17;102344.34;10350474;28;20046;-79
2023/04/19 18:41:46;;;;;;;0.98;0.90;;;;;;;11.56;53.19;102351.94;10354085;28;20066;-79
2023/04/19 18:46:50;;;;;;;0.20;0.20;;;;;;;11.42;53.71;102361.66;10345467;28;20542;-79
2023/04/19 18:51:52;;;;;;;0.10;0.10;;;;;;;11.40;53.13;102371.00;10366694;28;20498;-79
2023/04/19 18:56:54;;;;;;;1.13;0.35;;;;;;;11.15;54.16;102375.81;10351715;28;20452;-77
2023/04/19 19:01:58;;;;;;;0.15;0.15;;;;;;;11.28;53.21;102378.19;10360979;28;20404;-78
2023/04/19 19:07:00;;;;;;;0.17;0.10;;;;;;;10.74;56.80;102393.66;10365838;28;20042;-78
2023/04/19 19:12:18;;;;;;;0.10;0.10;;;;;;;10.76;56.23;102395.47;10361350;28;20045;-78
2023/04/19 19:17:20;;;;;;;0.57;0.20;;;;;;;10.95;54.50;102392.09;10344823;28;20125;-77
2023/04/19 19:22:22;;;;;;;0.20;0.20;;;;;;;10.67;57.08;102399.31;10358528;28;20646;-79
2023/04/19 19:27:29;;;;;;;0.20;0.20;;;;;;;10.63;56.10;102398.28;10347257;28;20041;-78
2023/04/19 19:32:31;;;;;;;0.30;0.30;;;;;;;10.47;58.80;102405.22;10342445;28;20042;-78
2023/04/19 19:37:35;;;;;;;0.10;0.03;;;;;;;10.47;57.18;102399.22;10343354;28;20057;-78
2023/04/19 19:42:38;;;;;;;0.15;0.15;;;;;;;10.13;60.08;102402.59;10367438;28;20038;-79
2023/04/19 19:47:39;;;;;;;0.10;0.10;;;;;;;10.04;59.54;102413.31;10351299;28;20505;-79
2023/04/19 19:52:46;;;;;;;0.30;0.30;;;;;;;9.88;59.77;102411.63;10365482;28;20034;-78
2023/04/19 19:57:48;;;;;;;0.20;0.20;;;;;;;10.07;58.01;102418.63;10361390;28;20100;-78
2023/04/19 20:03:10;;;;;;;1.35;0.80;;;;;;;10.02;57.42;102419.19;10355419;28;20039;-79
2023/04/19 20:08:13;;;;;;;0.55;0.28;;;;;;;10.03;56.77;102426.09;10346069;28;20038;-78
2023/04/19 20:13:14;;;;;;;0.10;0.10;;;;;;;9.90;57.94;102429.72;10346278;28;20060;-78
2023/04/19 20:18:16;;;;;;;0.00;0.00;;;;;;;9.93;57.19;102427.31;10365487;28;20060;-78
2023/04/19 20:23:19;;;;;;;0.80;0.40;;;;;;;9.77;57.17;102428.16;10348841;28;20038;-78
2023/04/19 20:28:20;;;;;;;0.10;0.10;;;;;;;9.69;57.78;102435.50;10362359;28;20057;-78
2023/04/19 20:33:22;;;;;;;0.32;0.32;;;;;;;9.72;56.78;102440.78;10360688;28;20042;-79
2023/04/19 20:38:25;;;;;;;0.45;0.10;;;;;;;9.66;57.46;102443.03;10347648;28;20073;-79
2023/04/19 20:43:26;;;;;;;0.10;0.10;;;;;;;9.47;58.45;102446.28;10362999;28;20060;-77
2023/04/19 20:48:28;;;;;;;0.32;0.20;;;;;;;9.28;60.24;102444.38;10365070;28;20054;-79
2023/04/19 20:53:30;;;;;;;0.10;0.10;;;;;;;9.45;57.06;102429.91;10369211;28;20056;-80
2023/04/19 20:58:32;;;;;;;0.30;0.30;;;;;;;9.19;57.91;102437.94;10377156;28;20088;-79
2023/04/19 21:03:33;;;;;;;0.73;0.15;;;;;;;9.36;56.28;102436.31;10396078;28;20041;-79
2023/04/19 21:08:35;;;;;;;0.00;0.00;;;;;;;9.28;55.89;102441.81;10361950;28;20060;-78
2023/04/19 21:13:36;;;;;;;0.20;0.15;;;;;;;9.14;56.50;102434.19;10397975;28;20120;-78
2023/04/19 21:18:38;;;;;;;0.00;0.00;;;;;;;9.27;56.46;102434.91;10380893;28;20512;-79
2023/04/19 21:23:40;;;;;;;0.32;0.10;;;;;;;8.99;57.19;102439.38;10345790;28;20046;-77
2023/04/19 21:28:41;;;;;;;0.32;0.20;;;;;;;8.88;57.99;102431.06;10360998;28;20088;-79
2023/04/19 21:33:42;;;;;;;0.35;0.20;;;;;;;8.77;57.63;102431.22;10365720;28;20052;-79
2023/04/19 21:38:44;;;;;;;0.00;0.00;;;;;;;8.49;59.16;102425.38;10374011;28;20117;-79
2023/04/19 21:43:45;;;;;;;0.35;0.05;;;;;;;8.78;55.81;102426.16;10366532;28;20042;-79
2023/04/19 21:48:47;;;;;;;0.20;0.20;;;;;;;8.78;57.51;102422.72;10360416;28;20045;-78
2023/04/19 21:53:48;;;;;;;0.20;0.15;;;;;;;8.64;57.35;102419.34;10357596;28;20133;-79
2023/04/19 21:58:50;;;;;;;0.17;0.10;;;;;;;8.35;58.54;102426.19;10356224;28;20053;-79
2023/04/19 22:03:51;;;;;;;15.25;0.40;;;;;;;8.36;58.27;102422.84;10399916;28;20444;-79
2023/04/19 22:08:53;;;;;;;1.98;0.65;;;;;;;8.64;55.66;102409.06;10384667;28;20096;-78
2023/04/19 22:13:55;;;;;;;0.10;0.10;;;;;;;8.40;57.20;102415.41;10394642;28;20119;-78
2023/04/19 22:19:00;;;;;;;0.17;0.15;;;;;;;8.41;57.48;102403.44;10382537;28;20037;-79
2023/04/19 22:24:02;;;;;;;0.30;0.10;;;;;;;8.38;58.23;102405.81;10366242;28;20042;-78
2023/04/19 22:29:04;;;;;;;0.17;0.15;;;;;;;8.19;58.96;102404.75;10385621;28;20504;-78
2023/04/19 22:34:05;;;;;;;0.10;0.10;;;;;;;8.20;58.97;102385.97;10374630;28;20749;-78
2023/04/19 22:39:07;;;;;;;0.00;0.00;;;;;;;8.29;59.19;102389.88;10379451;28;20124;-79
2023/04/19 22:44:08;;;;;;;0.38;0.38;;;;;;;8.05;60.58;102385.06;10384899;28;20440;-78
2023/04/19 22:49:10;;;;;;;5.70;0.65;;;;;;;7.84;62.54;102380.41;10386123;28;20113;-79
2023/04/19 22:54:11;;;;;;;0.10;0.10;;;;;;;7.52;65.05;102381.88;10371295;28;20103;-78
2023/04/19 22:59:13;;;;;;;0.45;0.45;;;;;;;7.33;66.72;102374.69;10374486;28;20041;-79
2023/04/19 23:04:15;;;;;;;0.30;0.20;;;;;;;7.59;65.46;102370.31;10377557;28;20493;-79
2023/04/19 23:09:17;;;;;;;1.55;0.28;;;;;;;7.36;69.34;102363.75;10375243;28;20045;-79
2023/04/19 23:14:19;;;;;;;0.00;0.00;;;;;;;7.39;69.05;102351.13;10369000;28;20133;-79